sensor_id;sensor_type;location;lat;lon;timestamp;pressure;altitude;pressure_sealevel;temperature;humidity
65173;BME280;51758;52.218;5.172;2023-04-02T00:00:14;99562.09;;;6.73;100.00
65173;BME280;51758;52.218;5.172;2023-04-02T00:02:47;99571.78;;;6.65;100.00
65173;BME280;51758;52.218;5.172;2023-04-02T00:05:41;99573.13;;;6.61;100.00
65173;BME280;51758;52.218;5.172;2023-04-02T00:08:26;99578.25;;;6.54;100.00
65173;BME280;51758;52.218;5.172;2023-04-02T00:10:56;99589.88;;;6.58;100.00
65173;BME280;51758;52.218;5.172;2023-04-02T00:13:32;99584.31;;;6.61;100.00
65173;BME280;51758;52.218;5.172;2023-04-02T00:16:01;99592.66;;;6.57;100.00
65173;BME280;51758;52.218;5.172;2023-04-02T00:18:31;99601.66;;;6.61;100.00
65173;BME280;51758;52.218;5.172;2023-04-02T00:21:08;99600.97;;;6.52;100.00
65173;BME280;51758;52.218;5.172;2023-04-02T00:23:38;99608.28;;;6.63;100.00
65173;BME280;51758;52.218;5.172;2023-04-02T00:26:20;99614.75;;;6.53;100.00
65173;BME280;51758;52.218;5.172;2023-04-02T00:28:50;99624.31;;;6.52;100.00
65173;BME280;51758;52.218;5.172;2023-04-02T00:31:19;99636.94;;;6.40;100.00
65173;BME280;51758;52.218;5.172;2023-04-02T00:33:47;99647.13;;;6.42;100.00
65173;BME280;51758;52.218;5.172;2023-04-02T00:36:17;99652.66;;;6.39;100.00
65173;BME280;51758;52.218;5.172;2023-04-02T00:38:46;99661.06;;;6.26;100.00
65173;BME280;51758;52.218;5.172;2023-04-02T00:41:18;99672.31;;;6.33;100.00
65173;BME280;51758;52.218;5.172;2023-04-02T00:43:49;99676.59;;;6.11;100.00
65173;BME280;51758;52.218;5.172;2023-04-02T00:46:21;99686.19;;;6.26;100.00
65173;BME280;51758;52.218;5.172;2023-04-02T00:48:53;99693.06;;;6.19;100.00
65173;BME280;51758;52.218;5.172;2023-04-02T00:51:29;99699.06;;;6.19;100.00
65173;BME280;51758;52.218;5.172;2023-04-02T00:54:00;99707.25;;;6.23;100.00
65173;BME280;51758;52.218;5.172;2023-04-02T00:56:32;99714.94;;;6.16;100.00
65173;BME280;51758;52.218;5.172;2023-04-02T00:59:11;99717.19;;;6.19;100.00
65173;BME280;51758;52.218;5.172;2023-04-02T01:01:43;99720.59;;;6.20;100.00
65173;BME280;51758;52.218;5.172;2023-04-02T01:04:24;99726.03;;;6.25;100.00
65173;BME280;51758;52.218;5.172;2023-04-02T01:06:53;99738.00;;;6.26;100.00
65173;BME280;51758;52.218;5.172;2023-04-02T01:09:30;99716.91;;;6.14;100.00
65173;BME280;51758;52.218;5.172;2023-04-02T01:12:19;99738.09;;;6.18;100.00
65173;BME280;51758;52.218;5.172;2023-04-02T01:14:58;99752.84;;;6.17;100.00
65173;BME280;51758;52.218;5.172;2023-04-02T01:17:41;99754.28;;;6.20;100.00
65173;BME280;51758;52.218;5.172;2023-04-02T01:23:34;99753.69;;;6.09;100.00
65173;BME280;51758;52.218;5.172;2023-04-02T01:26:12;99787.13;;;6.04;100.00
65173;BME280;51758;52.218;5.172;2023-04-02T01:28:51;99800.41;;;6.01;100.00
65173;BME280;51758;52.218;5.172;2023-04-02T01:31:24;99793.63;;;6.00;100.00
65173;BME280;51758;52.218;5.172;2023-04-02T01:33:53;99804.06;;;5.92;100.00
65173;BME280;51758;52.218;5.172;2023-04-02T01:36:26;99818.97;;;5.90;100.00
65173;BME280;51758;52.218;5.172;2023-04-02T01:39:01;99827.38;;;5.84;100.00
65173;BME280;51758;52.218;5.172;2023-04-02T01:41:34;99823.63;;;5.95;100.00
65173;BME280;51758;52.218;5.172;2023-04-02T01:44:07;99824.63;;;5.86;100.00
65173;BME280;51758;52.218;5.172;2023-04-02T01:46:40;99842.75;;;5.86;100.00
65173;BME280;51758;52.218;5.172;2023-04-02T01:49:13;99845.34;;;5.94;100.00
65173;BME280;51758;52.218;5.172;2023-04-02T01:51:44;99853.63;;;5.81;100.00
65173;BME280;51758;52.218;5.172;2023-04-02T01:54:15;99873.88;;;5.78;100.00
65173;BME280;51758;52.218;5.172;2023-04-02T01:56:44;99873.03;;;5.85;100.00
65173;BME280;51758;52.218;5.172;2023-04-02T01:59:16;99883.44;;;5.77;100.00
65173;BME280;51758;52.218;5.172;2023-04-02T02:01:47;99882.94;;;5.82;100.00
65173;BME280;51758;52.218;5.172;2023-04-02T02:04:19;99895.25;;;5.80;100.00
65173;BME280;51758;52.218;5.172;2023-04-02T02:06:46;99888.94;;;5.82;100.00
65173;BME280;51758;52.218;5.172;2023-04-02T02:09:18;99909.66;;;5.74;100.00
65173;BME280;51758;52.218;5.172;2023-04-02T02:11:49;99904.31;;;5.75;100.00
65173;BME280;51758;52.218;5.172;2023-04-02T02:14:20;99912.75;;;5.78;100.00
65173;BME280;51758;52.218;5.172;2023-04-02T02:16:49;99924.13;;;5.60;100.00
65173;BME280;51758;52.218;5.172;2023-04-02T02:19:23;99938.22;;;5.58;100.00
65173;BME280;51758;52.218;5.172;2023-04-02T02:21:55;99904.03;;;5.23;100.00
65173;BME280;51758;52.218;5.172;2023-04-02T02:24:25;99955.06;;;5.54;100.00
65173;BME280;51758;52.218;5.172;2023-04-02T02:27:04;99967.38;;;5.52;100.00
65173;BME280;51758;52.218;5.172;2023-04-02T02:29:36;99970.63;;;5.46;100.00
65173;BME280;51758;52.218;5.172;2023-04-02T02:32:05;99978.06;;;5.49;100.00
65173;BME280;51758;52.218;5.172;2023-04-02T02:34:38;99973.72;;;5.41;100.00
65173;BME280;51758;52.218;5.172;2023-04-02T02:37:12;99980.66;;;5.49;100.00
65173;BME280;51758;52.218;5.172;2023-04-02T02:39:42;99992.03;;;5.23;100.00
65173;BME280;51758;52.218;5.172;2023-04-02T02:42:15;100011.91;;;5.23;100.00
65173;BME280;51758;52.218;5.172;2023-04-02T02:44:47;100024.53;;;5.26;100.00
65173;BME280;51758;52.218;5.172;2023-04-02T02:47:18;100028.25;;;5.31;100.00
65173;BME280;51758;52.218;5.172;2023-04-02T02:49:51;100021.97;;;5.18;100.00
65173;BME280;51758;52.218;5.172;2023-04-02T02:52:21;100043.94;;;5.22;100.00
65173;BME280;51758;52.218;5.172;2023-04-02T02:54:55;100041.38;;;5.06;100.00
65173;BME280;51758;52.218;5.172;2023-04-02T02:57:26;100044.91;;;5.13;100.00
65173;BME280;51758;52.218;5.172;2023-04-02T02:59:59;100059.31;;;5.15;100.00
65173;BME280;51758;52.218;5.172;2023-04-02T03:02:34;100060.09;;;5.08;100.00
65173;BME280;51758;52.218;5.172;2023-04-02T03:05:03;100067.72;;;5.09;100.00
65173;BME280;51758;52.218;5.172;2023-04-02T03:07:33;100073.22;;;5.06;100.00
65173;BME280;51758;52.218;5.172;2023-04-02T03:10:05;100082.13;;;5.03;100.00
65173;BME280;51758;52.218;5.172;2023-04-02T03:12:43;100091.03;;;5.17;100.00
65173;BME280;51758;52.218;5.172;2023-04-02T03:15:20;100100.53;;;5.09;100.00
65173;BME280;51758;52.218;5.172;2023-04-02T03:17:52;100112.50;;;5.01;100.00
65173;BME280;51758;52.218;5.172;2023-04-02T03:20:26;100119.81;;;5.06;100.00
65173;BME280;51758;52.218;5.172;2023-04-02T03:23:01;100142.09;;;4.99;100.00
65173;BME280;51758;52.218;5.172;2023-04-02T03:25:35;100143.06;;;4.98;100.00
65173;BME280;51758;52.218;5.172;2023-04-02T03:28:11;100152.75;;;4.96;100.00
65173;BME280;51758;52.218;5.172;2023-04-02T03:30:45;100168.09;;;4.97;100.00
65173;BME280;51758;52.218;5.172;2023-04-02T03:33:19;100172.81;;;4.94;100.00
65173;BME280;51758;52.218;5.172;2023-04-02T03:35:54;100178.31;;;5.07;100.00
65173;BME280;51758;52.218;5.172;2023-04-02T03:38:26;100188.50;;;5.09;100.00
65173;BME280;51758;52.218;5.172;2023-04-02T03:41:02;100195.13;;;5.03;100.00
65173;BME280;51758;52.218;5.172;2023-04-02T03:43:34;100198.53;;;5.03;100.00
65173;BME280;51758;52.218;5.172;2023-04-02T03:46:13;100207.41;;;5.01;100.00
65173;BME280;51758;52.218;5.172;2023-04-02T03:48:46;100220.34;;;5.01;100.00
65173;BME280;51758;52.218;5.172;2023-04-02T03:51:19;100231.66;;;5.00;100.00
65173;BME280;51758;52.218;5.172;2023-04-02T03:53:50;100241.22;;;4.65;100.00
65173;BME280;51758;52.218;5.172;2023-04-02T03:56:24;100251.81;;;4.80;100.00
65173;BME280;51758;52.218;5.172;2023-04-02T03:59:02;100269.47;;;4.59;100.00
65173;BME280;51758;52.218;5.172;2023-04-02T04:01:36;100283.41;;;4.66;100.00
65173;BME280;51758;52.218;5.172;2023-04-02T04:04:12;100284.22;;;4.66;100.00
65173;BME280;51758;52.218;5.172;2023-04-02T04:06:44;100297.97;;;4.67;100.00
65173;BME280;51758;52.218;5.172;2023-04-02T04:09:18;100312.31;;;4.61;100.00
65173;BME280;51758;52.218;5.172;2023-04-02T04:11:48;100322.63;;;4.61;100.00
65173;BME280;51758;52.218;5.172;2023-04-02T04:14:19;100312.97;;;4.63;100.00
65173;BME280;51758;52.218;5.172;2023-04-02T04:16:52;100327.91;;;4.52;100.00
65173;BME280;51758;52.218;5.172;2023-04-02T04:19:27;100342.31;;;4.54;100.00
65173;BME280;51758;52.218;5.172;2023-04-02T04:22:08;100343.00;;;4.39;100.00
65173;BME280;51758;52.218;5.172;2023-04-02T04:24:36;100362.91;;;4.46;100.00
65173;BME280;51758;52.218;5.172;2023-04-02T04:27:07;100363.25;;;4.43;100.00
65173;BME280;51758;52.218;5.172;2023-04-02T04:29:45;100372.69;;;4.35;100.00
65173;BME280;51758;52.218;5.172;2023-04-02T04:32:23;100384.78;;;4.52;100.00
65173;BME280;51758;52.218;5.172;2023-04-02T04:34:57;100383.25;;;4.41;100.00
65173;BME280;51758;52.218;5.172;2023-04-02T04:37:30;100400.44;;;4.50;100.00
65173;BME280;51758;52.218;5.172;2023-04-02T04:40:07;100402.75;;;4.53;100.00
65173;BME280;51758;52.218;5.172;2023-04-02T04:42:39;100396.69;;;4.27;100.00
65173;BME280;51758;52.218;5.172;2023-04-02T04:45:15;100431.78;;;4.29;100.00
65173;BME280;51758;52.218;5.172;2023-04-02T04:47:54;100440.84;;;4.16;100.00
65173;BME280;51758;52.218;5.172;2023-04-02T04:50:30;100451.22;;;4.06;100.00
65173;BME280;51758;52.218;5.172;2023-04-02T04:53:04;100455.53;;;4.15;100.00
65173;BME280;51758;52.218;5.172;2023-04-02T04:55:37;100420.91;;;3.81;100.00
65173;BME280;51758;52.218;5.172;2023-04-02T04:58:13;100485.31;;;3.92;100.00
65173;BME280;51758;52.218;5.172;2023-04-02T05:00:59;100496.81;;;3.97;100.00
65173;BME280;51758;52.218;5.172;2023-04-02T05:03:36;100515.47;;;3.91;100.00
65173;BME280;51758;52.218;5.172;2023-04-02T05:06:10;100538.31;;;3.86;100.00
65173;BME280;51758;52.218;5.172;2023-04-02T05:08:45;100554.69;;;3.68;100.00
65173;BME280;51758;52.218;5.172;2023-04-02T05:11:20;100571.00;;;3.68;100.00
65173;BME280;51758;52.218;5.172;2023-04-02T05:13:53;100579.03;;;3.65;100.00
65173;BME280;51758;52.218;5.172;2023-04-02T05:16:25;100592.25;;;3.52;100.00
65173;BME280;51758;52.218;5.172;2023-04-02T05:19:04;100602.28;;;3.46;100.00
65173;BME280;51758;52.218;5.172;2023-04-02T05:21:37;100605.16;;;3.33;100.00
65173;BME280;51758;52.218;5.172;2023-04-02T05:27:11;100629.03;;;3.06;100.00
65173;BME280;51758;52.218;5.172;2023-04-02T05:29:45;100634.06;;;3.08;100.00
65173;BME280;51758;52.218;5.172;2023-04-02T05:32:18;100639.53;;;3.14;100.00
65173;BME280;51758;52.218;5.172;2023-04-02T05:34:53;100646.16;;;3.07;100.00
65173;BME280;51758;52.218;5.172;2023-04-02T05:37:25;100663.38;;;2.97;100.00
65173;BME280;51758;52.218;5.172;2023-04-02T05:39:57;100674.50;;;2.88;100.00
65173;BME280;51758;52.218;5.172;2023-04-02T05:42:28;100681.56;;;2.96;100.00
65173;BME280;51758;52.218;5.172;2023-04-02T05:45:06;100684.00;;;2.97;100.00
65173;BME280;51758;52.218;5.172;2023-04-02T05:47:36;100684.00;;;2.97;100.00
65173;BME280;51758;52.218;5.172;2023-04-02T05:50:18;100698.09;;;2.83;100.00
65173;BME280;51758;52.218;5.172;2023-04-02T05:52:50;100718.22;;;2.90;100.00
65173;BME280;51758;52.218;5.172;2023-04-02T05:55:29;100715.03;;;2.76;100.00
65173;BME280;51758;52.218;5.172;2023-04-02T05:58:04;100709.78;;;2.87;100.00
65173;BME280;51758;52.218;5.172;2023-04-02T06:01:01;100720.00;;;2.99;100.00
65173;BME280;51758;52.218;5.172;2023-04-02T06:03:41;100728.53;;;2.99;100.00
65173;BME280;51758;52.218;5.172;2023-04-02T06:06:18;100738.03;;;2.99;100.00
65173;BME280;51758;52.218;5.172;2023-04-02T06:08:51;100760.66;;;2.85;100.00
65173;BME280;51758;52.218;5.172;2023-04-02T06:11:26;100753.91;;;2.94;100.00
65173;BME280;51758;52.218;5.172;2023-04-02T06:13:55;100781.06;;;2.98;100.00
65173;BME280;51758;52.218;5.172;2023-04-02T06:16:26;100780.50;;;2.95;100.00
65173;BME280;51758;52.218;5.172;2023-04-02T06:18:56;100799.78;;;2.91;100.00
65173;BME280;51758;52.218;5.172;2023-04-02T06:21:25;100808.06;;;2.94;100.00
65173;BME280;51758;52.218;5.172;2023-04-02T06:23:55;100809.59;;;3.06;100.00
65173;BME280;51758;52.218;5.172;2023-04-02T06:26:29;100819.53;;;3.11;100.00
65173;BME280;51758;52.218;5.172;2023-04-02T06:29:02;100820.63;;;3.18;100.00
65173;BME280;51758;52.218;5.172;2023-04-02T06:31:36;100830.66;;;3.11;100.00
65173;BME280;51758;52.218;5.172;2023-04-02T06:34:06;100844.25;;;3.13;100.00
65173;BME280;51758;52.218;5.172;2023-04-02T06:36:43;100845.84;;;3.05;100.00
65173;BME280;51758;52.218;5.172;2023-04-02T06:39:16;100863.94;;;3.14;100.00
65173;BME280;51758;52.218;5.172;2023-04-02T06:41:45;100857.88;;;3.25;100.00
65173;BME280;51758;52.218;5.172;2023-04-02T06:44:16;100874.56;;;3.21;100.00
65173;BME280;51758;52.218;5.172;2023-04-02T06:46:47;100878.53;;;3.25;100.00
65173;BME280;51758;52.218;5.172;2023-04-02T06:49:22;100885.69;;;3.21;100.00
65173;BME280;51758;52.218;5.172;2023-04-02T06:51:53;100889.34;;;3.19;100.00
65173;BME280;51758;52.218;5.172;2023-04-02T06:54:21;100900.00;;;3.05;100.00
65173;BME280;51758;52.218;5.172;2023-04-02T06:56:50;100895.50;;;2.97;100.00
65173;BME280;51758;52.218;5.172;2023-04-02T06:59:19;100920.06;;;3.22;100.00
65173;BME280;51758;52.218;5.172;2023-04-02T07:01:50;100907.47;;;3.29;100.00
65173;BME280;51758;52.218;5.172;2023-04-02T07:04:19;100910.56;;;3.22;100.00
65173;BME280;51758;52.218;5.172;2023-04-02T07:06:47;100913.00;;;3.24;100.00
65173;BME280;51758;52.218;5.172;2023-04-02T07:09:17;100917.63;;;3.30;100.00
65173;BME280;51758;52.218;5.172;2023-04-02T07:11:45;100906.03;;;3.45;100.00
65173;BME280;51758;52.218;5.172;2023-04-02T07:14:13;100901.88;;;3.54;100.00
65173;BME280;51758;52.218;5.172;2023-04-02T07:16:42;100927.63;;;3.44;100.00
65173;BME280;51758;52.218;5.172;2023-04-02T07:19:16;100953.03;;;3.39;100.00
65173;BME280;51758;52.218;5.172;2023-04-02T07:21:44;100944.78;;;3.55;100.00
65173;BME280;51758;52.218;5.172;2023-04-02T07:24:12;100967.56;;;3.40;100.00
65173;BME280;51758;52.218;5.172;2023-04-02T07:26:41;100966.78;;;3.49;100.00
65173;BME280;51758;52.218;5.172;2023-04-02T07:29:13;100964.97;;;3.40;100.00
65173;BME280;51758;52.218;5.172;2023-04-02T07:31:41;100978.50;;;3.33;100.00
65173;BME280;51758;52.218;5.172;2023-04-02T07:34:10;100986.44;;;3.41;100.00
65173;BME280;51758;52.218;5.172;2023-04-02T07:36:37;100989.69;;;3.43;100.00
65173;BME280;51758;52.218;5.172;2023-04-02T07:39:05;101011.22;;;3.32;100.00
65173;BME280;51758;52.218;5.172;2023-04-02T07:41:54;101019.78;;;3.33;100.00
65173;BME280;51758;52.218;5.172;2023-04-02T07:44:22;101030.13;;;3.33;100.00
65173;BME280;51758;52.218;5.172;2023-04-02T07:46:49;101044.47;;;3.26;100.00
65173;BME280;51758;52.218;5.172;2023-04-02T07:49:17;101044.91;;;3.31;100.00
65173;BME280;51758;52.218;5.172;2023-04-02T07:51:45;101052.72;;;3.40;100.00
65173;BME280;51758;52.218;5.172;2023-04-02T07:54:13;101051.63;;;3.43;100.00
65173;BME280;51758;52.218;5.172;2023-04-02T07:56:41;101055.13;;;3.53;100.00
65173;BME280;51758;52.218;5.172;2023-04-02T07:59:11;101065.56;;;3.51;100.00
65173;BME280;51758;52.218;5.172;2023-04-02T08:01:39;101088.97;;;3.39;100.00
65173;BME280;51758;52.218;5.172;2023-04-02T08:04:15;101098.31;;;3.51;100.00
65173;BME280;51758;52.218;5.172;2023-04-02T08:06:43;101092.00;;;3.65;100.00
65173;BME280;51758;52.218;5.172;2023-04-02T08:09:11;101111.22;;;3.51;100.00
65173;BME280;51758;52.218;5.172;2023-04-02T08:11:39;101119.44;;;3.45;100.00
65173;BME280;51758;52.218;5.172;2023-04-02T08:14:08;101139.50;;;3.52;100.00
65173;BME280;51758;52.218;5.172;2023-04-02T08:16:45;101150.13;;;3.59;100.00
65173;BME280;51758;52.218;5.172;2023-04-02T08:19:14;101158.88;;;3.68;100.00
65173;BME280;51758;52.218;5.172;2023-04-02T08:21:42;101157.56;;;3.52;100.00
65173;BME280;51758;52.218;5.172;2023-04-02T08:24:10;101174.44;;;3.77;100.00
65173;BME280;51758;52.218;5.172;2023-04-02T08:26:38;101164.81;;;3.79;100.00
65173;BME280;51758;52.218;5.172;2023-04-02T08:29:07;101188.06;;;3.79;100.00
65173;BME280;51758;52.218;5.172;2023-04-02T08:31:35;101209.09;;;3.95;100.00
65173;BME280;51758;52.218;5.172;2023-04-02T08:34:05;101213.25;;;4.08;100.00
65173;BME280;51758;52.218;5.172;2023-04-02T08:36:35;101229.97;;;4.04;100.00
65173;BME280;51758;52.218;5.172;2023-04-02T08:39:04;101231.31;;;4.08;100.00
65173;BME280;51758;52.218;5.172;2023-04-02T08:41:36;101261.84;;;4.14;100.00
65173;BME280;51758;52.218;5.172;2023-04-02T08:44:11;101253.94;;;4.36;100.00
65173;BME280;51758;52.218;5.172;2023-04-02T08:46:47;101242.97;;;4.74;100.00
65173;BME280;51758;52.218;5.172;2023-04-02T08:49:23;101256.13;;;4.92;100.00
65173;BME280;51758;52.218;5.172;2023-04-02T08:51:52;101266.13;;;4.76;100.00
65173;BME280;51758;52.218;5.172;2023-04-02T08:54:24;101291.34;;;4.83;100.00
65173;BME280;51758;52.218;5.172;2023-04-02T08:56:56;101302.47;;;5.04;100.00
65173;BME280;51758;52.218;5.172;2023-04-02T08:59:30;101328.28;;;4.95;100.00
65173;BME280;51758;52.218;5.172;2023-04-02T09:02:06;101370.66;;;4.73;100.00
65173;BME280;51758;52.218;5.172;2023-04-02T09:04:43;101368.41;;;5.10;100.00
65173;BME280;51758;52.218;5.172;2023-04-02T09:07:13;101385.84;;;5.48;100.00
65173;BME280;51758;52.218;5.172;2023-04-02T09:09:42;101367.53;;;6.67;100.00
65173;BME280;51758;52.218;5.172;2023-04-02T09:12:16;101406.63;;;7.49;100.00
65173;BME280;51758;52.218;5.172;2023-04-02T09:14:53;101454.50;;;8.46;100.00
65173;BME280;51758;52.218;5.172;2023-04-02T09:17:26;101495.31;;;9.59;100.00
65173;BME280;51758;52.218;5.172;2023-04-02T09:20:13;101548.31;;;10.52;100.00
65173;BME280;51758;52.218;5.172;2023-04-02T09:22:44;101635.75;;;11.06;100.00
65173;BME280;51758;52.218;5.172;2023-04-02T09:25:20;101596.00;;;12.00;100.00
65173;BME280;51758;52.218;5.172;2023-04-02T09:27:49;101651.53;;;13.19;100.00
65173;BME280;51758;52.218;5.172;2023-04-02T09:30:26;101787.53;;;13.53;100.00
65173;BME280;51758;52.218;5.172;2023-04-02T09:32:58;101904.66;;;13.38;100.00
65173;BME280;51758;52.218;5.172;2023-04-02T09:35:30;101898.28;;;13.94;100.00
65173;BME280;51758;52.218;5.172;2023-04-02T09:38:18;102060.22;;;13.93;100.00
65173;BME280;51758;52.218;5.172;2023-04-02T09:40:49;102090.59;;;13.16;100.00
65173;BME280;51758;52.218;5.172;2023-04-02T09:43:19;102062.59;;;12.26;100.00
65173;BME280;51758;52.218;5.172;2023-04-02T09:45:58;102001.91;;;12.47;100.00
65173;BME280;51758;52.218;5.172;2023-04-02T09:48:28;102001.06;;;13.11;100.00
65173;BME280;51758;52.218;5.172;2023-04-02T09:51:12;102074.00;;;13.08;100.00
65173;BME280;51758;52.218;5.172;2023-04-02T09:53:41;102060.69;;;13.50;100.00
65173;BME280;51758;52.218;5.172;2023-04-02T09:56:14;102107.84;;;12.69;100.00
65173;BME280;51758;52.218;5.172;2023-04-02T09:58:44;102084.56;;;11.73;100.00
65173;BME280;51758;52.218;5.172;2023-04-02T10:01:26;102040.97;;;10.06;100.00
65173;BME280;51758;52.218;5.172;2023-04-02T10:03:55;101991.94;;;10.98;100.00
65173;BME280;51758;52.218;5.172;2023-04-02T10:06:27;102051.19;;;11.41;100.00
65173;BME280;51758;52.218;5.172;2023-04-02T10:08:55;102067.22;;;11.98;100.00
65173;BME280;51758;52.218;5.172;2023-04-02T10:11:26;102062.69;;;12.16;100.00
65173;BME280;51758;52.218;5.172;2023-04-02T10:14:15;102082.09;;;11.72;100.00
65173;BME280;51758;52.218;5.172;2023-04-02T10:16:48;102069.44;;;11.59;100.00
65173;BME280;51758;52.218;5.172;2023-04-02T10:19:22;102052.94;;;11.33;100.00
65173;BME280;51758;52.218;5.172;2023-04-02T10:21:55;102044.63;;;11.11;100.00
65173;BME280;51758;52.218;5.172;2023-04-02T10:24:26;102060.88;;;11.75;100.00
65173;BME280;51758;52.218;5.172;2023-04-02T10:27:05;102047.41;;;11.62;100.00
65173;BME280;51758;52.218;5.172;2023-04-02T10:29:48;102069.69;;;11.74;100.00
65173;BME280;51758;52.218;5.172;2023-04-02T10:32:20;102082.25;;;11.44;100.00
65173;BME280;51758;52.218;5.172;2023-04-02T10:34:55;102041.81;;;10.52;100.00
65173;BME280;51758;52.218;5.172;2023-04-02T10:40:26;102100.03;;;13.09;100.00
65173;BME280;51758;52.218;5.172;2023-04-02T10:46:06;102164.16;;;13.47;100.00
65173;BME280;51758;52.218;5.172;2023-04-02T10:48:43;102167.28;;;13.67;100.00
65173;BME280;51758;52.218;5.172;2023-04-02T10:51:27;102163.03;;;14.21;100.00
65173;BME280;51758;52.218;5.172;2023-04-02T10:54:02;102179.25;;;14.33;100.00
65173;BME280;51758;52.218;5.172;2023-04-02T10:56:34;102223.66;;;14.04;100.00
65173;BME280;51758;52.218;5.172;2023-04-02T10:59:18;102213.22;;;14.51;100.00
65173;BME280;51758;52.218;5.172;2023-04-02T11:01:50;102196.34;;;15.07;100.00
65173;BME280;51758;52.218;5.172;2023-04-02T11:04:22;102246.81;;;15.25;100.00
65173;BME280;51758;52.218;5.172;2023-04-02T11:06:57;102240.72;;;15.56;100.00
65173;BME280;51758;52.218;5.172;2023-04-02T11:09:42;102237.13;;;16.24;100.00
65173;BME280;51758;52.218;5.172;2023-04-02T11:12:20;102276.78;;;15.93;100.00
65173;BME280;51758;52.218;5.172;2023-04-02T11:14:49;102275.59;;;15.58;100.00
65173;BME280;51758;52.218;5.172;2023-04-02T11:17:18;102279.94;;;15.20;100.00
65173;BME280;51758;52.218;5.172;2023-04-02T11:19:47;102269.28;;;16.04;100.00
65173;BME280;51758;52.218;5.172;2023-04-02T11:22:16;102282.16;;;15.54;100.00
65173;BME280;51758;52.218;5.172;2023-04-02T11:24:46;102287.06;;;16.02;100.00
65173;BME280;51758;52.218;5.172;2023-04-02T11:27:20;102313.84;;;16.43;100.00
65173;BME280;51758;52.218;5.172;2023-04-02T11:29:51;102321.00;;;16.35;100.00
65173;BME280;51758;52.218;5.172;2023-04-02T11:32:33;102330.59;;;16.13;100.00
65173;BME280;51758;52.218;5.172;2023-04-02T11:41:07;102354.63;;;16.70;99.25
65173;BME280;51758;52.218;5.172;2023-04-02T11:43:59;102304.13;;;16.59;100.00
65173;BME280;51758;52.218;5.172;2023-04-02T11:46:43;102309.69;;;15.74;100.00
65173;BME280;51758;52.218;5.172;2023-04-02T11:49:39;102357.31;;;16.62;100.00
65173;BME280;51758;52.218;5.172;2023-04-02T11:52:22;102348.41;;;17.22;95.74
65173;BME280;51758;52.218;5.172;2023-04-02T11:55:19;102355.72;;;17.63;100.00
65173;BME280;51758;52.218;5.172;2023-04-02T11:58:20;102383.88;;;17.92;92.53
65173;BME280;51758;52.218;5.172;2023-04-02T12:01:20;102382.72;;;18.50;93.93
65173;BME280;51758;52.218;5.172;2023-04-02T12:04:14;102414.28;;;17.81;85.77
65173;BME280;51758;52.218;5.172;2023-04-02T12:06:54;102405.59;;;18.08;87.52
65173;BME280;51758;52.218;5.172;2023-04-02T12:09:28;102438.47;;;18.70;74.69
65173;BME280;51758;52.218;5.172;2023-04-02T12:11:59;102428.22;;;18.39;82.38
65173;BME280;51758;52.218;5.172;2023-04-02T12:14:32;102427.75;;;19.19;75.95
65173;BME280;51758;52.218;5.172;2023-04-02T12:17:17;102424.78;;;18.94;77.62
65173;BME280;51758;52.218;5.172;2023-04-02T12:19:48;102425.09;;;19.60;83.79
65173;BME280;51758;52.218;5.172;2023-04-02T12:22:19;102419.56;;;19.14;84.57
65173;BME280;51758;52.218;5.172;2023-04-02T12:24:49;102437.31;;;19.54;80.91
65173;BME280;51758;52.218;5.172;2023-04-02T12:27:19;102428.19;;;19.29;84.71
65173;BME280;51758;52.218;5.172;2023-04-02T12:29:49;102439.03;;;19.95;79.79
65173;BME280;51758;52.218;5.172;2023-04-02T12:32:26;102438.63;;;20.04;78.14
65173;BME280;51758;52.218;5.172;2023-04-02T12:34:56;102443.19;;;20.44;78.68
65173;BME280;51758;52.218;5.172;2023-04-02T12:37:26;102447.16;;;21.19;68.76
65173;BME280;51758;52.218;5.172;2023-04-02T12:39:57;102448.06;;;21.51;76.50
65173;BME280;51758;52.218;5.172;2023-04-02T12:42:30;102444.13;;;22.54;64.97
65173;BME280;51758;52.218;5.172;2023-04-02T12:44:58;102450.72;;;20.73;72.54
65173;BME280;51758;52.218;5.172;2023-04-02T12:47:28;102437.03;;;20.89;72.46
65173;BME280;51758;52.218;5.172;2023-04-02T12:49:57;102459.06;;;20.24;72.07
65173;BME280;51758;52.218;5.172;2023-04-02T12:52:27;102447.47;;;20.58;77.15
65173;BME280;51758;52.218;5.172;2023-04-02T12:54:57;102454.69;;;19.77;71.57
65173;BME280;51758;52.218;5.172;2023-04-02T12:57:38;102448.09;;;20.47;72.46
65173;BME280;51758;52.218;5.172;2023-04-02T13:00:29;102458.69;;;20.73;72.21
65173;BME280;51758;52.218;5.172;2023-04-02T13:03:17;102453.84;;;21.79;80.91
65173;BME280;51758;52.218;5.172;2023-04-02T13:05:48;102465.56;;;22.34;61.46
65173;BME280;51758;52.218;5.172;2023-04-02T13:08:19;102477.38;;;21.31;65.45
65173;BME280;51758;52.218;5.172;2023-04-02T13:10:52;102474.97;;;21.67;63.00
65173;BME280;51758;52.218;5.172;2023-04-02T13:13:27;102460.31;;;20.81;72.74
65173;BME280;51758;52.218;5.172;2023-04-02T13:16:20;102462.31;;;20.06;73.21
65173;BME280;51758;52.218;5.172;2023-04-02T13:19:08;102467.41;;;20.27;72.91
65173;BME280;51758;52.218;5.172;2023-04-02T13:21:36;102460.28;;;21.00;66.00
65173;BME280;51758;52.218;5.172;2023-04-02T13:24:15;102468.38;;;21.38;78.44
65173;BME280;51758;52.218;5.172;2023-04-02T13:26:43;102468.75;;;19.77;75.26
65173;BME280;51758;52.218;5.172;2023-04-02T13:29:18;102450.50;;;20.81;88.56
65173;BME280;51758;52.218;5.172;2023-04-02T13:31:47;102458.28;;;20.43;68.47
65173;BME280;51758;52.218;5.172;2023-04-02T13:34:16;102463.19;;;20.53;79.50
65173;BME280;51758;52.218;5.172;2023-04-02T13:36:45;102470.75;;;20.62;72.08
65173;BME280;51758;52.218;5.172;2023-04-02T13:39:13;102469.09;;;21.59;71.58
65173;BME280;51758;52.218;5.172;2023-04-02T13:41:42;102478.91;;;21.58;61.04